createdAt,value
2018-03-27T00:00:15.194Z,100718.86
2018-03-27T00:02:44.430Z,100718.39
2018-03-27T00:05:16.619Z,100718.11
2018-03-27T00:07:45.927Z,100721.86
2018-03-27T00:10:15.006Z,100725.61
2018-03-27T00:12:44.390Z,100725.00
2018-03-27T00:15:13.623Z,100723.86
2018-03-27T00:17:43.044Z,100723.28
2018-03-27T00:20:12.295Z,100719.22
2018-03-27T00:22:41.429Z,100717.96
2018-03-27T00:25:10.693Z,100719.78
2018-03-27T00:27:51.229Z,100723.34
2018-03-27T00:30:37.497Z,100718.28
2018-03-27T00:33:23.833Z,100715.04
2018-03-27T00:36:10.003Z,100724.84
2018-03-27T00:38:56.166Z,100731.25
2018-03-27T00:44:44.137Z,100728.69
2018-03-27T00:47:12.715Z,100736.78
2018-03-27T00:49:41.358Z,100731.29
2018-03-27T00:52:10.441Z,100734.09
2018-03-27T00:54:39.661Z,100743.28
2018-03-27T00:57:08.763Z,100747.95
2018-03-27T00:59:37.777Z,100754.53
2018-03-27T01:02:07.197Z,100756.49
2018-03-27T01:04:36.262Z,100757.45
2018-03-27T01:07:05.431Z,100757.09
2018-03-27T01:09:34.553Z,100754.33
2018-03-27T01:12:03.642Z,100762.91
2018-03-27T01:14:33.030Z,100752.91
2018-03-27T01:17:02.171Z,100757.91
2018-03-27T01:19:31.436Z,100762.44
2018-03-27T01:22:00.584Z,100766.91
2018-03-27T01:24:30.470Z,100767.69
2018-03-27T01:26:59.511Z,100770.55
2018-03-27T01:29:28.532Z,100766.91
2018-03-27T01:31:57.686Z,100770.80
2018-03-27T01:34:26.755Z,100767.70
2018-03-27T01:36:55.803Z,100785.65
2018-03-27T01:39:25.358Z,100780.34
2018-03-27T01:41:54.369Z,100778.34
2018-03-27T01:44:23.486Z,100781.19
2018-03-27T01:46:52.475Z,100788.23
2018-03-27T01:49:21.503Z,100788.64
2018-03-27T01:51:50.762Z,100788.00
2018-03-27T01:54:19.885Z,100786.34
2018-03-27T01:56:48.964Z,100789.98
2018-03-27T01:59:17.955Z,100788.39
2018-03-27T02:01:47.082Z,100793.98
2018-03-27T02:04:16.409Z,100784.59
2018-03-27T02:06:45.562Z,100795.45
2018-03-27T02:09:14.821Z,100796.54
2018-03-27T02:11:49.688Z,100793.52
2018-03-27T02:14:24.566Z,100798.93
2018-03-27T02:16:59.476Z,100801.98
2018-03-27T02:19:34.163Z,100816.09
2018-03-27T02:22:02.663Z,100815.39
2018-03-27T02:24:31.727Z,100821.59
2018-03-27T02:27:01.161Z,100822.92
2018-03-27T02:29:30.363Z,100832.52
2018-03-27T02:31:59.450Z,100840.70
2018-03-27T02:34:28.672Z,100844.08
2018-03-27T02:36:57.912Z,100839.00
2018-03-27T02:39:27.303Z,100848.91
2018-03-27T02:41:56.470Z,100857.36
2018-03-27T02:44:25.826Z,100860.77
2018-03-27T02:46:55.040Z,100857.59
2018-03-27T02:49:24.206Z,100858.72
2018-03-27T02:51:53.364Z,100857.86
2018-03-27T02:54:22.495Z,100862.16
2018-03-27T02:56:51.789Z,100868.84
2018-03-27T02:59:20.901Z,100870.44
2018-03-27T03:01:49.989Z,100867.30
2018-03-27T03:04:19.099Z,100874.81
2018-03-27T03:06:48.447Z,100874.19
2018-03-27T03:09:17.594Z,100880.73
2018-03-27T03:11:46.822Z,100881.07
2018-03-27T03:14:16.119Z,100882.17
2018-03-27T03:16:45.410Z,100879.93
2018-03-27T03:19:14.515Z,100872.06
2018-03-27T03:21:43.709Z,100878.84
2018-03-27T03:24:13.026Z,100879.17
2018-03-27T03:26:42.215Z,100875.48
2018-03-27T03:29:11.523Z,100876.92
2018-03-27T03:31:40.578Z,100874.72
2018-03-27T03:34:09.765Z,100871.48
2018-03-27T03:36:38.955Z,100871.00
2018-03-27T03:39:08.066Z,100873.72
2018-03-27T03:41:37.410Z,100881.28
2018-03-27T03:44:06.549Z,100881.14
2018-03-27T03:46:35.686Z,100883.45
2018-03-27T03:49:05.175Z,100881.75
2018-03-27T03:51:34.261Z,100896.48
2018-03-27T03:54:03.458Z,100890.61
2018-03-27T03:56:32.530Z,100889.19
2018-03-27T03:59:01.731Z,100897.86
2018-03-27T04:01:30.917Z,100908.10
2018-03-27T04:04:00.002Z,100900.23
2018-03-27T04:06:29.240Z,100901.58
2018-03-27T04:08:58.461Z,100907.36
2018-03-27T04:11:27.651Z,100905.31
2018-03-27T04:13:56.821Z,100909.52
2018-03-27T04:16:26.066Z,100910.22
2018-03-27T04:18:55.279Z,100920.20
2018-03-27T04:21:24.407Z,100914.48
2018-03-27T04:23:53.605Z,100918.45
2018-03-27T04:26:23.054Z,100920.55
2018-03-27T04:28:52.606Z,100921.23
2018-03-27T04:31:21.814Z,100926.23
2018-03-27T04:33:51.058Z,100939.19
2018-03-27T04:36:20.836Z,100936.18
2018-03-27T04:38:50.357Z,100934.01
2018-03-27T04:41:19.498Z,100932.91
2018-03-27T04:43:48.910Z,100940.83
2018-03-27T04:46:18.099Z,100947.88
2018-03-27T04:48:47.199Z,100947.33
2018-03-27T04:51:16.525Z,100958.31
2018-03-27T04:53:45.625Z,100960.01
2018-03-27T04:56:14.994Z,100959.89
2018-03-27T04:58:44.531Z,100962.33
2018-03-27T05:01:13.820Z,100955.58
2018-03-27T05:03:43.214Z,100953.02
2018-03-27T05:06:12.638Z,100962.51
2018-03-27T05:08:41.970Z,100966.28
2018-03-27T05:11:11.218Z,100967.46
2018-03-27T05:13:40.399Z,100968.77
2018-03-27T05:16:09.587Z,100974.48
2018-03-27T05:18:38.789Z,100974.20
2018-03-27T05:21:08.087Z,100984.09
2018-03-27T05:23:37.119Z,100980.28
2018-03-27T05:26:06.461Z,100980.13
2018-03-27T05:28:35.739Z,100980.82
2018-03-27T05:31:05.128Z,100980.66
2018-03-27T05:33:34.271Z,100982.30
2018-03-27T05:36:03.352Z,100976.17
2018-03-27T05:38:33.520Z,100979.36
2018-03-27T05:41:02.595Z,100973.95
2018-03-27T05:43:31.941Z,100981.88
2018-03-27T05:46:01.173Z,100980.81
2018-03-27T05:48:30.417Z,100970.05
2018-03-27T05:50:59.537Z,100982.80
2018-03-27T05:53:28.693Z,100969.54
2018-03-27T05:55:58.105Z,100984.36
2018-03-27T05:58:27.215Z,100988.67
2018-03-27T06:00:56.423Z,100982.98
2018-03-27T06:03:25.630Z,100990.86
2018-03-27T06:05:54.931Z,100984.19
2018-03-27T06:08:24.014Z,100995.93
2018-03-27T06:10:53.218Z,100994.62
2018-03-27T06:13:22.383Z,100999.94
2018-03-27T06:15:51.559Z,101004.03
2018-03-27T06:18:20.803Z,101008.98
2018-03-27T06:20:50.025Z,101003.34
2018-03-27T06:23:19.138Z,100989.63
2018-03-27T06:25:48.495Z,101007.29
2018-03-27T06:28:18.001Z,101011.55
2018-03-27T06:30:47.362Z,101006.48
2018-03-27T06:33:16.597Z,101009.59
2018-03-27T06:35:45.788Z,101004.28
2018-03-27T06:38:15.082Z,101007.31
2018-03-27T06:40:44.214Z,101007.11
2018-03-27T06:43:13.429Z,101008.66
2018-03-27T06:45:42.603Z,101010.66
2018-03-27T06:48:11.974Z,101007.52
2018-03-27T06:50:41.406Z,101004.29
2018-03-27T06:53:10.498Z,101006.60
2018-03-27T06:55:39.695Z,101010.20
2018-03-27T06:58:08.869Z,101005.05
2018-03-27T07:00:38.113Z,101004.20
2018-03-27T07:03:07.223Z,101003.08
2018-03-27T07:05:36.493Z,101003.06
2018-03-27T07:08:05.747Z,101009.86
2018-03-27T07:10:35.102Z,101016.69
2018-03-27T07:13:04.527Z,101024.90
2018-03-27T07:15:33.881Z,101025.08
2018-03-27T07:18:03.113Z,101022.66
2018-03-27T07:20:32.418Z,101037.23
2018-03-27T07:23:01.716Z,101028.88
2018-03-27T07:25:31.068Z,101022.56
2018-03-27T07:28:00.320Z,101023.20
2018-03-27T07:30:29.632Z,101027.08
2018-03-27T07:32:59.127Z,101022.61
2018-03-27T07:35:28.274Z,101031.47
2018-03-27T07:37:57.535Z,101029.24
2018-03-27T07:40:26.778Z,101026.22
2018-03-27T07:42:56.119Z,101032.16
2018-03-27T07:45:25.193Z,101024.36
2018-03-27T07:47:54.722Z,101047.18
2018-03-27T07:50:24.132Z,101034.64
2018-03-27T07:52:53.615Z,101032.39
2018-03-27T07:55:22.836Z,101038.31
2018-03-27T07:57:52.120Z,101037.16
2018-03-27T08:00:21.646Z,101039.97
2018-03-27T08:02:50.766Z,101036.55
2018-03-27T08:05:19.926Z,101036.73
2018-03-27T08:07:49.134Z,101033.28
2018-03-27T08:10:18.310Z,101047.42
2018-03-27T08:12:47.578Z,101048.00
2018-03-27T08:15:16.986Z,101052.67
2018-03-27T08:17:46.181Z,101072.45
2018-03-27T08:20:15.641Z,101079.74
2018-03-27T08:22:44.853Z,101051.91
2018-03-27T08:25:14.100Z,101051.85
2018-03-27T08:27:43.637Z,101055.69
2018-03-27T08:30:13.062Z,101057.17
2018-03-27T08:32:42.558Z,101060.92
2018-03-27T08:35:11.857Z,101051.05
2018-03-27T08:37:41.123Z,101050.78
2018-03-27T08:40:10.440Z,101045.05
2018-03-27T08:42:39.946Z,101054.52
2018-03-27T08:45:09.367Z,101059.38
2018-03-27T08:47:38.765Z,101054.20
2018-03-27T08:50:08.174Z,101054.14
2018-03-27T08:52:37.677Z,101052.95
2018-03-27T08:55:06.954Z,101050.63
2018-03-27T08:57:36.246Z,101055.27
2018-03-27T09:00:06.443Z,101049.74
2018-03-27T09:02:36.897Z,101052.84
2018-03-27T09:05:06.246Z,101054.27
2018-03-27T09:07:35.479Z,101055.81
2018-03-27T09:10:04.754Z,101055.75
2018-03-27T09:12:34.241Z,101050.37
2018-03-27T09:15:03.530Z,101042.52
2018-03-27T09:17:32.825Z,101049.98
2018-03-27T09:20:02.205Z,101048.34
2018-03-27T09:22:31.498Z,101041.95
2018-03-27T09:25:00.837Z,101042.88
2018-03-27T09:27:29.951Z,101043.25
2018-03-27T09:29:59.290Z,101048.70
2018-03-27T09:32:28.635Z,101044.30
2018-03-27T09:34:58.246Z,101035.20
2018-03-27T09:37:27.521Z,101039.31
2018-03-27T09:39:56.775Z,101032.05
2018-03-27T09:42:26.094Z,101038.08
2018-03-27T09:44:55.177Z,101034.86
2018-03-27T09:47:24.621Z,101030.19
2018-03-27T09:49:53.933Z,101038.66
2018-03-27T09:52:23.078Z,101038.39
2018-03-27T09:54:52.951Z,101028.16
2018-03-27T09:57:22.321Z,101027.82
2018-03-27T09:59:51.511Z,101032.59
2018-03-27T10:02:20.858Z,101036.44
2018-03-27T10:04:50.243Z,101043.37
2018-03-27T10:07:20.495Z,101045.10
2018-03-27T10:09:49.708Z,101043.95
2018-03-27T10:12:18.966Z,101031.28
2018-03-27T10:14:48.385Z,101030.03
2018-03-27T10:17:17.496Z,101031.56
2018-03-27T10:19:46.891Z,101022.59
2018-03-27T10:22:27.142Z,101023.16
2018-03-27T10:25:02.191Z,101027.97
2018-03-27T10:27:31.473Z,101029.45
2018-03-27T10:30:00.741Z,101038.28
2018-03-27T10:32:30.288Z,101033.15
2018-03-27T10:34:59.677Z,101025.62
2018-03-27T10:37:29.078Z,101028.09
2018-03-27T10:39:58.186Z,101028.02
2018-03-27T10:42:27.166Z,101021.71
2018-03-27T10:44:56.149Z,101017.25
2018-03-27T10:47:25.418Z,101019.22
2018-03-27T10:49:55.323Z,101011.38
2018-03-27T10:52:24.491Z,101012.33
2018-03-27T10:54:53.437Z,101008.05
2018-03-27T10:57:22.691Z,101006.36
2018-03-27T10:59:51.823Z,101009.36
2018-03-27T11:02:20.839Z,101021.09
2018-03-27T11:04:49.869Z,101013.16
2018-03-27T11:07:18.878Z,101016.33
2018-03-27T11:09:48.258Z,101014.18
2018-03-27T11:12:17.848Z,101018.84
2018-03-27T11:14:47.125Z,101021.16
2018-03-27T11:17:16.575Z,101023.23
2018-03-27T11:19:45.666Z,101030.70
2018-03-27T11:22:15.025Z,101036.40
2018-03-27T11:24:44.371Z,101042.60
2018-03-27T11:27:13.680Z,101031.82
2018-03-27T11:29:42.839Z,101040.05
2018-03-27T11:32:12.038Z,101035.22
2018-03-27T11:34:41.254Z,101031.38
2018-03-27T11:37:10.487Z,101018.77
2018-03-27T11:39:39.646Z,101028.81
2018-03-27T11:42:08.831Z,101021.43
2018-03-27T11:44:38.040Z,101020.80
2018-03-27T11:47:07.271Z,101020.35
2018-03-27T11:49:36.562Z,101020.61
2018-03-27T11:52:05.739Z,101025.56
2018-03-27T11:54:35.276Z,101013.77
2018-03-27T11:57:04.470Z,101022.08
2018-03-27T11:59:33.664Z,101020.09
2018-03-27T12:02:02.853Z,101017.14
2018-03-27T12:04:32.028Z,101014.43
2018-03-27T12:07:01.118Z,101013.06
2018-03-27T12:09:30.222Z,101012.25
2018-03-27T12:11:59.682Z,101000.84
2018-03-27T12:14:29.055Z,101007.22
2018-03-27T12:16:58.306Z,100999.45
2018-03-27T12:19:27.414Z,101000.34
2018-03-27T12:21:56.593Z,101004.48
2018-03-27T12:24:26.061Z,101006.23
2018-03-27T12:26:55.471Z,101016.95
2018-03-27T12:29:24.738Z,101025.89
2018-03-27T12:31:54.050Z,101030.16
2018-03-27T12:34:23.343Z,101020.25
2018-03-27T12:36:52.676Z,101012.42
2018-03-27T12:39:21.695Z,101025.72
2018-03-27T12:41:50.922Z,101022.64
2018-03-27T12:44:20.206Z,101025.33
2018-03-27T12:46:55.289Z,101023.97
2018-03-27T12:49:24.647Z,101030.05
2018-03-27T12:51:54.002Z,101028.51
2018-03-27T12:54:23.100Z,101028.33
2018-03-27T12:56:52.651Z,101029.47
2018-03-27T12:59:21.665Z,101020.02
2018-03-27T13:01:50.590Z,101027.76
2018-03-27T13:04:19.765Z,101027.82
2018-03-27T13:06:49.305Z,101029.67
2018-03-27T13:09:18.446Z,101028.33
2018-03-27T13:11:47.560Z,101026.06
2018-03-27T13:14:17.135Z,101036.20
2018-03-27T13:16:46.234Z,101038.48
2018-03-27T13:19:15.214Z,101047.05
2018-03-27T13:21:44.345Z,101041.72
2018-03-27T13:24:13.457Z,101048.09
2018-03-27T13:26:42.846Z,101041.88
2018-03-27T13:29:11.915Z,101048.00
2018-03-27T13:31:40.982Z,101044.73
2018-03-27T13:34:10.245Z,101049.50
2018-03-27T13:36:40.285Z,101053.70
2018-03-27T13:39:09.430Z,101062.96
2018-03-27T13:41:38.839Z,101058.42
2018-03-27T13:44:08.086Z,101061.80
2018-03-27T13:46:37.192Z,101049.66
2018-03-27T13:49:06.584Z,101051.91
2018-03-27T13:51:35.793Z,101053.27
2018-03-27T13:54:04.831Z,101057.15
2018-03-27T13:56:33.974Z,101047.70
2018-03-27T13:59:03.018Z,101055.94
2018-03-27T14:01:32.269Z,101049.66
2018-03-27T14:04:01.367Z,101044.67
2018-03-27T14:06:30.661Z,101055.48
2018-03-27T14:08:59.781Z,101053.20
2018-03-27T14:11:28.957Z,101049.31
2018-03-27T14:13:58.058Z,101045.00
2018-03-27T14:16:27.133Z,101041.92
2018-03-27T14:18:56.240Z,101055.71
2018-03-27T14:21:25.285Z,101057.73
2018-03-27T14:23:54.563Z,101054.75
2018-03-27T14:26:23.549Z,101060.23
2018-03-27T14:28:52.638Z,101057.33
2018-03-27T14:31:21.678Z,101052.67
2018-03-27T14:33:50.746Z,101054.77
2018-03-27T14:36:19.973Z,101054.94
2018-03-27T14:38:49.341Z,101057.92
2018-03-27T14:41:18.342Z,101042.49
2018-03-27T14:43:47.458Z,101035.52
2018-03-27T14:46:16.530Z,101033.13
2018-03-27T14:48:45.877Z,101034.38
2018-03-27T14:51:15.035Z,101037.80
2018-03-27T14:53:44.323Z,101036.41
2018-03-27T14:56:13.399Z,101037.18
2018-03-27T14:58:42.495Z,101045.31
2018-03-27T15:01:11.637Z,101051.81
2018-03-27T15:03:40.942Z,101059.69
2018-03-27T15:06:09.997Z,101047.79
2018-03-27T15:08:39.011Z,101055.98
2018-03-27T15:11:08.280Z,101057.05
2018-03-27T15:13:37.439Z,101057.34
2018-03-27T15:16:06.535Z,101061.72
2018-03-27T15:18:35.794Z,101066.41
2018-03-27T15:21:04.725Z,101073.15
2018-03-27T15:23:33.854Z,101084.78
2018-03-27T15:26:02.805Z,101088.94
2018-03-27T15:28:31.831Z,101086.88
2018-03-27T15:31:00.864Z,101089.78
2018-03-27T15:33:30.177Z,101090.52
2018-03-27T15:35:59.428Z,101086.48
2018-03-27T15:38:28.448Z,101090.17
2018-03-27T15:40:57.640Z,101097.51
2018-03-27T15:43:26.702Z,101094.43
2018-03-27T15:45:55.773Z,101100.92
2018-03-27T15:48:24.814Z,101109.35
2018-03-27T15:50:53.864Z,101115.97
2018-03-27T15:53:22.862Z,101113.58
2018-03-27T15:55:51.898Z,101123.62
2018-03-27T15:58:20.900Z,101121.94
2018-03-27T16:00:50.108Z,101123.37
2018-03-27T16:03:19.169Z,101125.86
2018-03-27T16:05:48.494Z,101140.80
2018-03-27T16:08:17.619Z,101143.30
2018-03-27T16:10:46.798Z,101152.22
2018-03-27T16:13:15.911Z,101152.04
2018-03-27T16:15:44.930Z,101152.47
2018-03-27T16:18:14.418Z,101154.52
2018-03-27T16:20:43.722Z,101157.45
2018-03-27T16:23:12.682Z,101162.40
2018-03-27T16:25:41.650Z,101155.56
2018-03-27T16:28:11.013Z,101144.92
2018-03-27T16:30:39.997Z,101141.95
2018-03-27T16:33:08.966Z,101133.05
2018-03-27T16:35:37.898Z,101130.85
2018-03-27T16:38:07.050Z,101120.87
2018-03-27T16:40:36.218Z,101113.51
2018-03-27T16:43:05.459Z,101106.70
2018-03-27T16:45:34.621Z,101100.81
2018-03-27T16:48:03.741Z,101119.52
2018-03-27T16:50:33.027Z,101136.18
2018-03-27T16:53:02.036Z,101132.54
2018-03-27T16:55:31.173Z,101128.12
2018-03-27T16:58:00.398Z,101137.06
2018-03-27T17:00:29.609Z,101133.15
2018-03-27T17:02:58.882Z,101129.71
2018-03-27T17:05:28.116Z,101130.95
2018-03-27T17:07:58.147Z,101129.06
2018-03-27T17:10:27.206Z,101131.87
2018-03-27T17:12:56.286Z,101143.24
2018-03-27T17:15:25.695Z,101144.65
2018-03-27T17:17:54.782Z,101140.30
2018-03-27T17:20:24.114Z,101144.59
2018-03-27T17:22:53.350Z,101145.63
2018-03-27T17:25:22.692Z,101148.91
2018-03-27T17:27:51.891Z,101137.84
2018-03-27T17:30:21.034Z,101142.19
2018-03-27T17:32:50.221Z,101135.55
2018-03-27T17:35:19.502Z,101133.59
2018-03-27T17:37:48.575Z,101133.50
2018-03-27T17:40:18.135Z,101129.67
2018-03-27T17:42:47.241Z,101136.43
2018-03-27T17:45:16.325Z,101145.11
2018-03-27T17:47:45.478Z,101161.73
2018-03-27T17:50:14.676Z,101173.69
2018-03-27T17:52:43.685Z,101178.20
2018-03-27T17:55:12.735Z,101190.75
2018-03-27T17:57:41.735Z,101197.26
2018-03-27T18:00:10.713Z,101202.08
2018-03-27T18:02:39.771Z,101205.66
2018-03-27T18:05:08.853Z,101207.61
2018-03-27T18:07:38.011Z,101211.78
2018-03-27T18:10:07.265Z,101218.75
2018-03-27T18:12:36.241Z,101218.64
2018-03-27T18:15:05.228Z,101224.08
2018-03-27T18:17:34.241Z,101228.73
2018-03-27T18:20:03.433Z,101224.88
2018-03-27T18:22:32.527Z,101227.14
2018-03-27T18:25:01.534Z,101230.76
2018-03-27T18:27:30.758Z,101232.81
2018-03-27T18:29:59.899Z,101225.84
2018-03-27T18:32:29.158Z,101226.73
2018-03-27T18:34:58.126Z,101241.83
2018-03-27T18:37:27.278Z,101242.80
2018-03-27T18:39:56.486Z,101253.67
2018-03-27T18:42:25.513Z,101249.83
2018-03-27T18:44:54.698Z,101251.70
2018-03-27T18:47:24.032Z,101257.77
2018-03-27T18:49:53.065Z,101260.08
2018-03-27T18:52:22.151Z,101254.00
2018-03-27T18:54:51.087Z,101255.92
2018-03-27T18:57:20.186Z,101262.33
2018-03-27T18:59:49.327Z,101263.50
2018-03-27T19:02:18.342Z,101261.53
2018-03-27T19:04:47.393Z,101260.63
2018-03-27T19:07:16.638Z,101272.62
2018-03-27T19:09:45.669Z,101278.41
2018-03-27T19:12:14.754Z,101279.59
2018-03-27T19:14:43.879Z,101286.27
2018-03-27T19:17:13.029Z,101290.46
2018-03-27T19:19:42.425Z,101287.24
2018-03-27T19:22:11.455Z,101292.23
2018-03-27T19:24:40.553Z,101287.34
2018-03-27T19:27:09.738Z,101295.07
2018-03-27T19:29:38.739Z,101294.62
2018-03-27T19:32:07.941Z,101301.69
2018-03-27T19:34:37.270Z,101293.69
2018-03-27T19:37:06.426Z,101309.80
2018-03-27T19:39:35.664Z,101303.84
2018-03-27T19:42:04.651Z,101296.87
2018-03-27T19:44:33.755Z,101292.80
2018-03-27T19:47:02.890Z,101288.77
2018-03-27T19:49:31.862Z,101286.45
2018-03-27T19:52:00.879Z,101284.78
2018-03-27T19:54:29.982Z,101270.97
2018-03-27T19:56:58.965Z,101262.12
2018-03-27T19:59:28.214Z,101261.30
2018-03-27T20:01:57.308Z,101249.83
2018-03-27T20:04:26.418Z,101250.16
2018-03-27T20:06:55.551Z,101255.27
2018-03-27T20:09:24.663Z,101260.45
2018-03-27T20:11:53.759Z,101262.94
2018-03-27T20:14:22.977Z,101259.38
2018-03-27T20:16:52.054Z,101267.94
2018-03-27T20:19:21.815Z,101273.65
2018-03-27T20:21:51.059Z,101273.03
2018-03-27T20:24:20.222Z,101275.14
2018-03-27T20:26:49.455Z,101275.77
2018-03-27T20:29:18.604Z,101289.22
2018-03-27T20:31:47.581Z,101292.61
2018-03-27T20:34:16.744Z,101293.05
2018-03-27T20:36:45.755Z,101300.20
2018-03-27T20:39:14.943Z,101300.72
2018-03-27T20:41:44.031Z,101301.34
2018-03-27T20:44:12.985Z,101295.45
2018-03-27T20:46:42.093Z,101298.05
2018-03-27T20:49:11.195Z,101305.32
2018-03-27T20:51:40.538Z,101296.94
2018-03-27T20:54:09.804Z,101293.69
2018-03-27T20:56:38.930Z,101289.77
2018-03-27T20:59:08.071Z,101287.82
2018-03-27T21:01:37.420Z,101290.84
2018-03-27T21:04:06.371Z,101291.70
2018-03-27T21:06:35.435Z,101289.04
2018-03-27T21:09:04.711Z,101299.92
2018-03-27T21:11:33.926Z,101298.95
2018-03-27T21:14:02.843Z,101291.30
2018-03-27T21:16:31.940Z,101295.38
2018-03-27T21:19:01.307Z,101291.98
2018-03-27T21:21:30.297Z,101286.02
2018-03-27T21:23:59.312Z,101291.46
2018-03-27T21:26:28.402Z,101290.05
2018-03-27T21:28:57.617Z,101291.91
2018-03-27T21:31:26.690Z,101295.55
2018-03-27T21:33:55.830Z,101281.41
2018-03-27T21:36:25.027Z,101270.45
2018-03-27T21:38:54.250Z,101264.11
2018-03-27T21:41:23.223Z,101258.30
2018-03-27T21:43:52.236Z,101253.89
2018-03-27T21:46:21.447Z,101243.59
2018-03-27T21:48:50.527Z,101241.95
2018-03-27T21:51:19.787Z,101263.30
2018-03-27T21:53:48.713Z,101256.44
2018-03-27T21:56:17.681Z,101248.61
2018-03-27T21:58:46.753Z,101253.58
2018-03-27T22:01:18.801Z,101264.20
2018-03-27T22:03:47.918Z,101266.78
2018-03-27T22:06:26.863Z,101267.33
2018-03-27T22:08:55.885Z,101273.91
2018-03-27T22:11:25.273Z,101280.61
2018-03-27T22:13:54.426Z,101281.76
2018-03-27T22:16:23.448Z,101276.47
2018-03-27T22:18:52.447Z,101269.22
2018-03-27T22:21:21.477Z,101259.77
2018-03-27T22:23:50.632Z,101246.56
2018-03-27T22:26:19.782Z,101242.62
2018-03-27T22:28:48.823Z,101247.43
2018-03-27T22:31:18.006Z,101245.09
2018-03-27T22:33:47.268Z,101251.77
2018-03-27T22:36:16.465Z,101249.55
2018-03-27T22:38:45.622Z,101248.89
2018-03-27T22:41:14.762Z,101256.09
2018-03-27T22:43:44.534Z,101263.38
2018-03-27T22:46:13.831Z,101268.09
2018-03-27T22:48:42.865Z,101278.23
2018-03-27T22:51:12.211Z,101278.30
2018-03-27T22:53:41.526Z,101282.66
2018-03-27T22:56:10.693Z,101272.11
2018-03-27T22:58:39.969Z,101255.91
2018-03-27T23:01:09.115Z,101263.90
2018-03-27T23:03:38.257Z,101267.45
2018-03-27T23:06:07.493Z,101263.16
2018-03-27T23:08:36.738Z,101274.67
2018-03-27T23:11:05.863Z,101268.08
2018-03-27T23:13:35.217Z,101268.60
2018-03-27T23:16:04.413Z,101263.09
2018-03-27T23:18:33.621Z,101250.78
2018-03-27T23:21:02.831Z,101249.95
2018-03-27T23:23:32.156Z,101232.09
2018-03-27T23:26:01.267Z,101237.16
2018-03-27T23:28:30.489Z,101230.92
2018-03-27T23:30:59.609Z,101232.44
2018-03-27T23:33:28.669Z,101231.87
2018-03-27T23:35:57.851Z,101214.55
2018-03-27T23:38:27.047Z,101213.20
2018-03-27T23:40:56.437Z,101217.22
2018-03-27T23:43:25.831Z,101203.84
2018-03-27T23:45:55.245Z,101218.34
2018-03-27T23:48:24.403Z,101194.51
2018-03-27T23:50:53.513Z,101206.74
2018-03-27T23:53:22.797Z,101192.92
2018-03-27T23:55:51.889Z,101197.67
2018-03-27T23:58:21.533Z,101204.08
